Time;durP1;ratioP1;P1;durP2;ratioP2;P2;SDS_P1;SDS_P2;PMS_P1;PMS_P2;Temp;Humidity;BMP_temperature;BMP_pressure;BME280_temperature;BME280_humidity;BME280_pressure;Samples;Min_cycle;Max_cycle;Signal;HPM_P1;HPM_P2
2021/08/29 00:00:36;;;;;;;10.02;5.35;;;15.90;99.90;;;;;;5033611;28;20037;-51
2021/08/29 00:03:01;;;;;;;6.35;4.00;;;15.90;99.90;;;;;;5029469;28;20119;-51
2021/08/29 00:05:27;;;;;;;7.32;4.50;;;15.90;99.90;;;;;;5052547;28;20073;-51
2021/08/29 00:07:53;;;;;;;6.68;4.35;;;15.90;99.90;;;;;;5052260;28;20029;-51
2021/08/29 00:10:19;;;;;;;6.93;4.00;;;15.80;99.90;;;;;;5051830;28;20040;-51
2021/08/29 00:12:45;;;;;;;7.53;5.13;;;15.90;99.90;;;;;;5052589;28;20044;-52
2021/08/29 00:15:11;;;;;;;8.95;4.57;;;15.80;99.90;;;;;;5033553;28;20041;-51
2021/08/29 00:17:37;;;;;;;6.85;4.45;;;15.90;99.90;;;;;;5003315;28;20045;-50
2021/08/29 00:20:04;;;;;;;8.57;4.57;;;15.90;99.90;;;;;;5031832;28;20056;-51
2021/08/29 00:22:30;;;;;;;8.50;4.45;;;15.90;99.90;;;;;;5052004;28;20051;-50
2021/08/29 00:24:56;;;;;;;16.38;5.13;;;15.90;99.90;;;;;;5051974;28;20032;-51
2021/08/29 00:27:22;;;;;;;7.53;4.57;;;15.90;99.90;;;;;;5033689;28;20565;-51
2021/08/29 00:29:47;;;;;;;6.00;4.90;;;15.90;99.90;;;;;;5053220;28;20496;-53
2021/08/29 00:32:13;;;;;;;8.13;4.75;;;15.90;99.90;;;;;;5055557;28;20120;-51
2021/08/29 00:34:40;;;;;;;8.00;5.85;;;15.90;99.90;;;;;;5055855;28;20546;-50
2021/08/29 00:37:05;;;;;;;11.10;7.28;;;15.80;99.90;;;;;;5055165;28;20494;-51
2021/08/29 00:39:32;;;;;;;9.93;6.25;;;15.70;99.90;;;;;;5020604;28;20120;-51
2021/08/29 00:41:58;;;;;;;8.90;5.65;;;15.70;99.90;;;;;;5056705;28;20025;-51
2021/08/29 00:44:25;;;;;;;5.93;5.20;;;15.50;99.90;;;;;;5056617;28;20021;-51
2021/08/29 00:46:51;;;;;;;7.05;5.50;;;15.60;99.90;;;;;;5021207;28;20033;-51
2021/08/29 00:49:18;;;;;;;11.38;6.07;;;15.60;99.90;;;;;;5021198;28;20041;-51
2021/08/29 00:51:46;;;;;;;18.70;7.15;;;15.60;99.90;;;;;;5020705;28;20037;-51
2021/08/29 00:54:12;;;;;;;13.70;5.50;;;15.70;99.90;;;;;;5055784;28;20044;-51
2021/08/29 00:56:38;;;;;;;8.95;5.68;;;15.80;99.90;;;;;;5037272;28;20515;-51
2021/08/29 00:59:04;;;;;;;8.75;5.88;;;15.70;99.90;;;;;;5055910;28;20037;-51
2021/08/29 01:01:45;;;;;;;8.52;6.47;;;15.80;99.90;;;;;;5055811;28;20040;-52
2021/08/29 01:04:20;;;;;;;7.50;5.82;;;15.80;99.90;;;;;;5020513;28;20040;-52
2021/08/29 01:06:53;;;;;;;8.68;6.15;;;15.80;99.90;;;;;;5054801;28;20511;-51
2021/08/29 01:09:20;;;;;;;7.72;6.07;;;15.70;99.90;;;;;;5051128;28;20029;-52
2021/08/29 01:11:51;;;;;;;10.10;6.10;;;15.70;99.90;;;;;;5036060;28;20025;-51
2021/08/29 01:14:23;;;;;;;7.18;6.22;;;15.70;99.90;;;;;;5017500;28;20038;-51
2021/08/29 01:17:00;;;;;;;;;;;15.70;99.90;;;;;;5017643;28;20115;-51
2021/08/29 01:20:04;;;;;;;7.32;5.85;;;15.60;99.90;;;;;;5035980;28;20001;-51
2021/08/29 01:22:31;;;;;;;7.22;6.13;;;15.60;99.90;;;;;;5035638;28;20429;-52
2021/08/29 01:24:59;;;;;;;8.48;6.10;;;15.40;99.90;;;;;;5017174;28;20041;-50
2021/08/29 01:27:32;;;;;;;8.90;6.38;;;15.40;99.90;;;;;;5036074;28;20071;-50
2021/08/29 01:29:59;;;;;;;7.60;5.72;;;15.40;99.90;;;;;;5035472;28;20029;-51
2021/08/29 01:32:25;;;;;;;11.25;6.30;;;15.40;99.90;;;;;;5035755;28;20021;-50
2021/08/29 01:34:52;;;;;;;7.47;5.95;;;15.40;99.90;;;;;;5035814;28;20495;-51
2021/08/29 01:37:18;;;;;;;9.48;6.15;;;15.40;99.90;;;;;;5035388;28;20060;-53
2021/08/29 01:39:45;;;;;;;10.98;6.18;;;15.50;99.90;;;;;;5035522;28;20057;-51
2021/08/29 01:42:12;;;;;;;7.68;6.00;;;15.50;99.90;;;;;;5035477;28;20029;-51
2021/08/29 01:44:40;;;;;;;10.23;6.55;;;15.60;99.90;;;;;;5035671;28;20021;-51
2021/08/29 01:47:05;;;;;;;7.43;6.53;;;15.50;99.90;;;;;;5035397;28;20035;-51
2021/08/29 01:49:31;;;;;;;7.60;5.63;;;15.40;99.90;;;;;;5034755;28;20100;-50
2021/08/29 01:51:57;;;;;;;9.38;5.93;;;15.10;99.90;;;;;;4984015;28;20033;-51
2021/08/29 01:54:23;;;;;;;8.57;5.28;;;15.00;99.90;;;;;;5050429;28;20081;-52
2021/08/29 01:56:59;;;;;;;8.20;5.60;;;14.90;99.90;;;;;;5054857;28;20368;-51
2021/08/29 01:59:26;;;;;;;6.30;5.68;;;14.90;99.90;;;;;;5055003;28;20021;-52
2021/08/29 02:01:52;;;;;;;10.02;5.78;;;14.90;99.90;;;;;;5055217;28;20049;-51
2021/08/29 02:04:20;;;;;;;9.35;6.28;;;14.90;99.90;;;;;;5055113;28;20099;-52
2021/08/29 02:06:50;;;;;;;5.93;5.03;;;14.80;99.90;;;;;;5019958;28;20047;-52
2021/08/29 02:09:18;;;;;;;8.52;5.05;;;14.80;99.90;;;;;;5054978;28;20074;-51
2021/08/29 02:11:50;;;;;;;7.72;5.72;;;14.70;99.90;;;;;;5055004;28;20033;-52
2021/08/29 02:14:23;;;;;;;6.03;4.60;;;14.70;99.90;;;;;;5054787;28;20184;-52
2021/08/29 02:16:50;;;;;;;7.47;5.45;;;14.60;99.90;;;;;;5054772;28;20103;-51
2021/08/29 02:19:32;;;;;;;6.53;4.50;;;14.70;99.90;;;;;;5054975;28;20025;-51
2021/08/29 02:21:59;;;;;;;8.02;4.72;;;14.60;99.90;;;;;;5054370;28;20025;-51
2021/08/29 02:24:27;;;;;;;7.32;4.30;;;14.60;99.90;;;;;;5054832;28;20103;-51
2021/08/29 02:26:54;;;;;;;5.72;4.40;;;14.60;99.90;;;;;;5054644;28;20040;-51
2021/08/29 02:29:20;;;;;;;5.60;3.85;;;14.60;99.90;;;;;;5054331;28;20021;-52
2021/08/29 02:31:48;;;;;;;7.35;4.20;;;14.50;99.90;;;;;;5054814;28;20029;-52
2021/08/29 02:34:14;;;;;;;4.05;3.38;;;14.70;99.90;;;;;;5054582;28;20053;-52
2021/08/29 02:36:41;;;;;;;3.90;3.45;;;14.80;99.90;;;;;;5019023;28;20142;-51
2021/08/29 02:39:08;;;;;;;5.80;3.97;;;14.90;99.90;;;;;;5054154;28;20041;-51
2021/08/29 02:41:36;;;;;;;5.13;3.85;;;14.90;99.90;;;;;;5054491;28;20033;-51
2021/08/29 02:44:02;;;;;;;6.25;3.50;;;14.90;99.90;;;;;;5054022;28;20025;-52
2021/08/29 02:46:28;;;;;;;5.22;3.45;;;14.90;99.90;;;;;;5053283;28;20025;-51
2021/08/29 02:48:55;;;;;;;7.25;3.72;;;14.90;99.90;;;;;;5054260;28;20017;-51
2021/08/29 02:51:23;;;;;;;6.95;3.75;;;15.00;99.90;;;;;;5053210;28;20021;-51
2021/08/29 02:53:49;;;;;;;4.32;3.45;;;15.00;99.90;;;;;;5051921;28;20510;-52
2021/08/29 02:56:18;;;;;;;5.70;3.88;;;15.00;99.90;;;;;;5053598;28;20128;-52
2021/08/29 02:58:45;;;;;;;4.40;3.53;;;14.90;99.90;;;;;;5053253;28;20043;-52
2021/08/29 03:01:12;;;;;;;5.13;3.67;;;15.00;99.90;;;;;;5053399;28;20029;-51
2021/08/29 03:03:38;;;;;;;3.78;3.22;;;14.90;99.90;;;;;;5053635;28;20055;-52
2021/08/29 03:06:04;;;;;;;4.07;2.97;;;14.90;99.90;;;;;;5053676;28;20483;-52
2021/08/29 03:08:30;;;;;;;4.75;3.08;;;14.90;99.90;;;;;;5053918;28;20083;-52
2021/08/29 03:10:56;;;;;;;4.55;3.58;;;14.90;99.90;;;;;;5035026;28;20492;-52
2021/08/29 03:13:23;;;;;;;5.53;3.53;;;14.90;99.90;;;;;;5053854;28;20033;-51
2021/08/29 03:15:49;;;;;;;4.00;3.20;;;15.00;99.90;;;;;;5053531;28;20364;-51
2021/08/29 03:18:15;;;;;;;4.45;3.03;;;15.00;99.90;;;;;;5053867;28;20045;-52
2021/08/29 03:20:41;;;;;;;3.40;3.03;;;15.00;99.90;;;;;;5053754;28;20033;-51
2021/08/29 03:23:08;;;;;;;5.75;3.70;;;15.00;99.90;;;;;;5053396;28;20052;-52
2021/08/29 03:25:34;;;;;;;3.85;3.30;;;15.00;99.90;;;;;;5018283;28;20033;-51
2021/08/29 03:28:00;;;;;;;4.35;3.95;;;15.00;99.90;;;;;;5002058;28;20052;-51
2021/08/29 03:30:26;;;;;;;3.97;3.45;;;15.00;99.90;;;;;;5051526;28;20107;-51
2021/08/29 03:32:52;;;;;;;5.25;3.38;;;15.00;99.90;;;;;;5001790;28;20064;-52
2021/08/29 03:35:19;;;;;;;4.78;3.45;;;15.00;99.90;;;;;;5001939;28;20041;-52
2021/08/29 03:37:45;;;;;;;5.30;4.32;;;14.90;99.90;;;;;;5053132;28;20033;-52
2021/08/29 03:40:11;;;;;;;4.72;3.95;;;15.00;99.90;;;;;;5053358;28;20346;-52
2021/08/29 03:42:38;;;;;;;5.88;4.03;;;14.90;99.90;;;;;;5034809;28;20069;-52
2021/08/29 03:45:06;;;;;;;5.75;3.88;;;14.90;99.90;;;;;;5017991;28;20033;-52
2021/08/29 03:47:34;;;;;;;5.10;4.60;;;14.80;99.90;;;;;;4969440;28;20033;-51
2021/08/29 03:50:00;;;;;;;5.90;4.95;;;14.70;99.90;;;;;;5053303;28;20500;-52
2021/08/29 03:52:26;;;;;;;5.00;4.50;;;14.80;99.90;;;;;;5034646;28;20167;-52
2021/08/29 03:54:52;;;;;;;7.25;4.50;;;14.90;99.90;;;;;;5051529;28;20056;-52
2021/08/29 03:57:18;;;;;;;5.80;4.90;;;14.80;99.90;;;;;;5017043;28;20056;-52
2021/08/29 03:59:44;;;;;;;6.72;4.95;;;14.90;99.90;;;;;;5040471;28;20045;-51
2021/08/29 04:02:10;;;;;;;6.75;5.45;;;14.90;99.90;;;;;;5014921;28;20033;-52
2021/08/29 04:04:37;;;;;;;5.93;5.32;;;15.00;99.90;;;;;;5026797;28;20107;-51
2021/08/29 04:07:04;;;;;;;6.70;5.70;;;15.00;99.90;;;;;;5021248;28;20029;-51
2021/08/29 04:09:32;;;;;;;7.03;5.40;;;15.00;99.90;;;;;;5021045;28;20460;-51
2021/08/29 04:12:02;;;;;;;8.55;6.30;;;15.10;99.90;;;;;;5053736;28;20483;-52
2021/08/29 04:14:28;;;;;;;6.43;5.43;;;15.20;99.90;;;;;;5019073;28;20033;-51
2021/08/29 04:16:56;;;;;;;6.72;5.22;;;15.10;99.90;;;;;;5056979;28;20029;-52
2021/08/29 04:19:23;;;;;;;8.13;5.55;;;15.20;99.90;;;;;;5056820;28;20372;-51
2021/08/29 04:21:49;;;;;;;5.70;5.20;;;15.20;99.90;;;;;;5057024;28;20032;-52
2021/08/29 04:24:15;;;;;;;6.80;5.90;;;15.10;99.90;;;;;;5057123;28;20033;-51
2021/08/29 04:26:42;;;;;;;6.43;5.82;;;15.10;99.90;;;;;;5038394;28;20048;-52
2021/08/29 04:29:08;;;;;;;8.40;6.63;;;15.00;99.90;;;;;;5056693;28;20029;-51
2021/08/29 04:31:34;;;;;;;7.10;6.30;;;15.10;99.90;;;;;;5056794;28;20036;-52
2021/08/29 04:34:08;;;;;;;9.05;6.57;;;15.10;99.90;;;;;;5057017;28;20051;-52
2021/08/29 04:36:37;;;;;;;8.90;6.68;;;15.10;99.90;;;;;;5056547;28;20418;-52
2021/08/29 04:39:08;;;;;;;8.30;6.32;;;15.10;99.90;;;;;;5056674;28;20033;-52
2021/08/29 04:41:34;;;;;;;8.48;6.68;;;15.10;99.90;;;;;;5052556;28;20033;-51
2021/08/29 04:44:01;;;;;;;7.32;5.65;;;15.10;99.90;;;;;;5055881;28;20473;-51
2021/08/29 04:46:28;;;;;;;7.80;5.65;;;14.90;99.90;;;;;;5056629;28;20033;-52
2021/08/29 04:48:54;;;;;;;6.85;6.15;;;14.90;99.90;;;;;;5056539;28;20028;-52
2021/08/29 04:51:20;;;;;;;8.85;6.25;;;14.80;99.90;;;;;;5056055;28;20021;-51
2021/08/29 04:53:46;;;;;;;7.05;6.30;;;14.90;99.90;;;;;;5056497;28;20032;-53
2021/08/29 04:56:11;;;;;;;6.93;5.97;;;15.00;99.90;;;;;;5056517;28;20051;-53
2021/08/29 04:58:37;;;;;;;7.38;6.00;;;15.10;99.90;;;;;;5055896;28;20083;-52
2021/08/29 05:01:03;;;;;;;7.70;6.55;;;15.10;99.90;;;;;;5037888;28;20469;-53
2021/08/29 05:03:29;;;;;;;8.68;6.78;;;15.10;99.90;;;;;;5055776;28;20031;-52
2021/08/29 05:05:56;;;;;;;7.47;6.03;;;15.10;99.90;;;;;;4987626;28;20084;-51
2021/08/29 05:08:22;;;;;;;10.55;6.82;;;15.00;99.90;;;;;;5056201;28;20029;-51
2021/08/29 05:10:48;;;;;;;8.95;5.43;;;14.90;99.90;;;;;;5037383;28;20090;-51
2021/08/29 05:13:13;;;;;;;9.07;6.68;;;14.90;99.90;;;;;;5037196;28;20037;-51
2021/08/29 05:15:39;;;;;;;8.73;6.68;;;15.00;99.90;;;;;;5055374;28;20060;-51
2021/08/29 05:18:05;;;;;;;7.75;6.63;;;14.90;99.90;;;;;;5037262;28;20041;-51
2021/08/29 05:20:31;;;;;;;7.20;5.90;;;14.90;99.90;;;;;;5055773;28;20032;-52
2021/08/29 05:22:56;;;;;;;8.30;7.15;;;14.90;99.90;;;;;;5020706;28;20055;-51
2021/08/29 05:25:22;;;;;;;8.75;7.20;;;14.90;99.90;;;;;;5037085;28;20032;-52
2021/08/29 05:27:48;;;;;;;8.00;7.20;;;14.90;99.90;;;;;;5055411;28;20119;-51
2021/08/29 05:30:14;;;;;;;8.25;6.95;;;14.80;99.90;;;;;;5037356;28;20041;-51
2021/08/29 05:32:39;;;;;;;7.07;6.32;;;14.90;99.90;;;;;;5055575;28;20457;-52
2021/08/29 05:35:06;;;;;;;7.43;6.38;;;15.00;99.90;;;;;;5036766;28;20044;-52
2021/08/29 05:37:31;;;;;;;7.63;6.78;;;15.10;99.90;;;;;;5004003;28;20033;-52
2021/08/29 05:39:57;;;;;;;9.02;6.70;;;15.20;99.90;;;;;;5003785;28;20492;-51
2021/08/29 05:42:23;;;;;;;10.60;7.13;;;15.10;99.90;;;;;;5055271;28;20025;-51
2021/08/29 05:44:48;;;;;;;9.70;6.57;;;15.20;99.90;;;;;;5042275;28;20061;-52
2021/08/29 05:47:14;;;;;;;11.13;6.40;;;15.20;99.90;;;;;;5017011;28;20044;-52
2021/08/29 05:49:40;;;;;;;8.98;6.78;;;15.20;99.90;;;;;;5030055;28;20142;-51
2021/08/29 05:52:06;;;;;;;7.60;6.78;;;15.10;99.90;;;;;;5054529;28;20511;-52
2021/08/29 05:54:32;;;;;;;6.90;6.07;;;15.20;99.90;;;;;;5054283;28;20034;-52
2021/08/29 05:56:58;;;;;;;7.78;6.85;;;15.30;99.90;;;;;;5053952;28;20436;-51
2021/08/29 05:59:23;;;;;;;6.80;6.03;;;15.30;99.90;;;;;;5033765;28;20116;-52
2021/08/29 06:01:49;;;;;;;8.43;5.57;;;15.30;99.90;;;;;;5024258;28;20065;-51
2021/08/29 06:04:15;;;;;;;8.30;6.68;;;15.30;99.90;;;;;;5047174;28;20057;-52
2021/08/29 06:06:40;;;;;;;10.88;7.07;;;15.30;99.90;;;;;;5048688;28;20035;-52
2021/08/29 06:09:06;;;;;;;8.82;6.85;;;15.30;99.90;;;;;;5046834;28;20083;-52
2021/08/29 06:11:33;;;;;;;7.63;6.55;;;15.30;99.90;;;;;;4962046;28;20068;-51
2021/08/29 06:13:59;;;;;;;9.93;7.55;;;15.30;99.90;;;;;;5041894;28;20033;-51
2021/08/29 06:16:25;;;;;;;8.98;7.13;;;15.40;99.90;;;;;;5043186;28;20079;-52
2021/08/29 06:18:51;;;;;;;8.63;7.40;;;15.30;99.90;;;;;;5038600;28;20037;-52
2021/08/29 06:21:17;;;;;;;9.10;7.32;;;15.30;99.90;;;;;;5039278;28;20517;-52
2021/08/29 06:23:43;;;;;;;8.15;7.35;;;15.40;99.90;;;;;;5037981;28;20018;-51
2021/08/29 06:26:08;;;;;;;9.40;7.05;;;15.40;99.90;;;;;;5043636;28;20029;-52
2021/08/29 06:28:34;;;;;;;14.13;9.00;;;15.20;99.90;;;;;;5039135;28;20053;-51
2021/08/29 06:31:00;;;;;;;8.10;7.28;;;15.30;99.90;;;;;;5028631;28;20496;-52
2021/08/29 06:33:26;;;;;;;7.93;6.68;;;15.30;99.90;;;;;;5018101;28;20485;-52
2021/08/29 06:35:53;;;;;;;7.45;5.25;;;15.40;99.90;;;;;;5040590;28;20036;-52
2021/08/29 06:38:19;;;;;;;7.25;6.55;;;15.20;99.90;;;;;;5044554;28;20049;-52
2021/08/29 06:40:44;;;;;;;7.43;6.60;;;15.20;99.90;;;;;;5021528;28;20492;-52
2021/08/29 06:43:10;;;;;;;7.97;6.35;;;15.30;99.90;;;;;;5042740;28;20476;-52
2021/08/29 06:45:36;;;;;;;7.43;6.72;;;15.30;99.90;;;;;;5045976;28;20029;-52
2021/08/29 06:48:02;;;;;;;7.88;5.05;;;15.30;99.90;;;;;;5024620;28;20040;-52
2021/08/29 06:50:27;;;;;;;6.32;5.25;;;15.30;99.90;;;;;;5043316;28;20040;-52
2021/08/29 06:52:53;;;;;;;7.22;6.30;;;15.20;99.90;;;;;;5047089;28;20075;-52
2021/08/29 06:55:19;;;;;;;6.32;5.57;;;15.30;99.90;;;;;;5043999;28;20090;-52
2021/08/29 06:57:44;;;;;;;5.75;5.25;;;15.20;99.90;;;;;;5046389;28;20036;-51
2021/08/29 07:00:10;;;;;;;6.43;4.95;;;15.20;99.90;;;;;;5038626;28;20033;-51
2021/08/29 07:02:36;;;;;;;7.35;5.40;;;15.20;99.90;;;;;;5024799;28;20421;-53
2021/08/29 07:05:02;;;;;;;5.55;5.03;;;15.30;99.90;;;;;;5041225;28;20052;-52
2021/08/29 07:07:28;;;;;;;5.60;5.03;;;15.20;99.90;;;;;;5043294;28;20021;-51
2021/08/29 07:09:54;;;;;;;5.68;5.10;;;15.40;99.90;;;;;;5023968;28;20036;-51
2021/08/29 07:12:19;;;;;;;6.30;5.70;;;15.40;99.90;;;;;;4997411;28;20029;-51
2021/08/29 07:14:45;;;;;;;6.60;5.50;;;15.30;99.90;;;;;;5043618;28;20021;-51
2021/08/29 07:17:14;;;;;;;5.88;4.70;;;15.20;99.90;;;;;;5031236;28;20108;-52
2021/08/29 07:19:40;;;;;;;5.88;4.90;;;15.30;99.90;;;;;;5039367;28;20063;-51
2021/08/29 07:22:06;;;;;;;5.25;4.80;;;15.20;99.90;;;;;;5037985;28;20028;-52
2021/08/29 07:24:31;;;;;;;5.00;4.50;;;15.30;99.90;;;;;;5038696;28;20487;-51
2021/08/29 07:26:57;;;;;;;5.18;4.68;;;15.40;99.90;;;;;;5040621;28;20025;-52
2021/08/29 07:29:23;;;;;;;5.20;4.40;;;15.40;99.90;;;;;;5024756;28;20033;-52
2021/08/29 07:31:49;;;;;;;5.65;5.15;;;15.40;99.90;;;;;;5041701;28;20032;-51
2021/08/29 07:34:14;;;;;;;6.18;5.57;;;15.40;99.90;;;;;;5041988;28;20021;-51
2021/08/29 07:36:40;;;;;;;5.70;5.10;;;15.50;99.90;;;;;;5023999;28;20041;-52
2021/08/29 07:39:06;;;;;;;6.13;5.45;;;15.60;99.90;;;;;;5037884;28;20045;-51
2021/08/29 07:41:32;;;;;;;5.25;4.75;;;16.00;99.90;;;;;;5041333;28;20377;-53
2021/08/29 07:43:57;;;;;;;4.07;3.67;;;15.90;99.90;;;;;;5051189;28;20381;-52
2021/08/29 07:46:26;;;;;;;5.65;5.07;;;15.90;99.90;;;;;;5032416;28;20051;-53
2021/08/29 07:48:52;;;;;;;6.60;5.90;;;16.10;99.90;;;;;;5044530;28;20029;-52
2021/08/29 07:51:18;;;;;;;5.15;4.68;;;16.30;99.90;;;;;;5043979;28;20052;-52
2021/08/29 07:53:44;;;;;;;5.28;4.78;;;16.40;99.90;;;;;;5033438;28;20028;-53
2021/08/29 07:56:10;;;;;;;5.78;4.47;;;16.40;99.90;;;;;;5032506;28;20033;-52
2021/08/29 07:58:35;;;;;;;5.35;4.85;;;16.30;99.90;;;;;;5050251;28;20118;-53
2021/08/29 08:01:01;;;;;;;5.03;4.53;;;16.50;99.90;;;;;;5041557;28;20032;-52
2021/08/29 08:03:27;;;;;;;6.70;5.32;;;16.50;99.90;;;;;;5023864;28;20041;-52
2021/08/29 08:05:54;;;;;;;5.05;4.35;;;16.80;99.90;;;;;;5001220;28;20040;-52
2021/08/29 08:08:19;;;;;;;4.40;4.00;;;17.00;99.90;;;;;;5053120;28;20052;-53
2021/08/29 08:10:45;;;;;;;4.80;4.40;;;17.20;99.90;;;;;;5027006;28;20437;-52
2021/08/29 08:13:11;;;;;;;5.38;4.88;;;17.10;99.90;;;;;;5049171;28;20115;-52
2021/08/29 08:15:37;;;;;;;5.63;4.38;;;17.10;99.90;;;;;;5044532;28;20522;-52
2021/08/29 08:18:03;;;;;;;5.40;4.13;;;16.90;99.90;;;;;;5043177;28;20075;-52
2021/08/29 08:20:28;;;;;;;5.10;4.20;;;16.90;99.90;;;;;;5043534;28;20108;-51
2021/08/29 08:22:54;;;;;;;5.03;4.53;;;16.80;99.90;;;;;;5046260;28;20043;-51
2021/08/29 08:25:20;;;;;;;4.82;4.32;;;17.00;99.90;;;;;;4999198;28;20033;-52
2021/08/29 08:27:46;;;;;;;4.80;4.30;;;17.00;99.90;;;;;;5035760;28;20361;-52
2021/08/29 08:30:13;;;;;;;4.25;3.85;;;17.20;99.90;;;;;;4997994;28;20033;-55
2021/08/29 08:32:38;;;;;;;3.67;3.33;;;17.20;99.90;;;;;;4988975;28;20030;-51
2021/08/29 08:35:04;;;;;;;8.85;4.30;;;17.40;99.90;;;;;;5052822;28;20032;-52
2021/08/29 08:37:30;;;;;;;4.85;4.00;;;17.50;99.90;;;;;;5052049;28;20112;-50
2021/08/29 08:39:56;;;;;;;4.00;3.67;;;17.40;99.90;;;;;;5000212;28;20128;-49
2021/08/29 08:42:22;;;;;;;4.07;3.67;;;17.40;99.90;;;;;;5051620;28;20439;-50
2021/08/29 08:44:48;;;;;;;4.70;3.85;;;17.30;99.90;;;;;;5051705;28;20059;-50
2021/08/29 08:47:18;;;;;;;4.78;4.07;;;17.40;99.90;;;;;;5050503;28;20017;-50
2021/08/29 08:49:45;;;;;;;4.35;3.95;;;17.20;99.90;;;;;;5050763;28;20116;-49
2021/08/29 08:52:26;;;;;;;5.68;4.72;;;17.20;99.90;;;;;;5013191;28;20036;-50
2021/08/29 08:54:54;;;;;;;5.07;4.22;;;17.10;99.90;;;;;;5050917;28;20044;-49
2021/08/29 08:57:20;;;;;;;5.65;5.05;;;17.20;99.90;;;;;;5035994;28;20048;-50
2021/08/29 08:59:47;;;;;;;5.50;5.00;;;16.90;99.90;;;;;;5052192;28;20044;-50
2021/08/29 09:02:13;;;;;;;5.28;4.63;;;16.90;99.90;;;;;;5054276;28;20025;-50
2021/08/29 09:04:40;;;;;;;5.75;5.15;;;16.80;99.90;;;;;;5018374;28;20523;-50
2021/08/29 09:07:06;;;;;;;7.47;5.10;;;16.80;99.90;;;;;;5050181;28;20087;-51
2021/08/29 09:09:34;;;;;;;5.20;4.70;;;16.80;99.90;;;;;;5042905;28;20036;-51
2021/08/29 09:12:00;;;;;;;5.28;4.78;;;16.90;99.90;;;;;;5047406;28;20075;-50
2021/08/29 09:14:48;;;;;;;5.32;4.82;;;16.80;99.90;;;;;;5046975;28;20354;-51
2021/08/29 09:17:39;;;;;;;6.60;5.05;;;16.60;99.90;;;;;;5015766;28;20143;-50
2021/08/29 09:20:16;;;;;;;5.55;5.05;;;16.80;99.90;;;;;;5045291;28;20476;-51
2021/08/29 09:22:43;;;;;;;4.60;4.20;;;16.90;99.90;;;;;;5036725;28;20470;-49
2021/08/29 09:25:17;;;;;;;4.57;4.18;;;16.90;99.90;;;;;;5034874;28;20099;-49
2021/08/29 09:27:51;;;;;;;5.43;4.00;;;17.00;99.90;;;;;;5053892;28;20037;-50
2021/08/29 09:42:12;;;;;;;5.63;4.47;;;16.90;99.90;;;;;;5153538;27;20139;-50
2021/08/29 09:44:38;;;;;;;5.10;4.65;;;16.80;99.90;;;;;;5139361;27;20034;-49
2021/08/29 09:47:05;;;;;;;11.80;9.05;;;16.70;99.90;;;;;;5143025;27;20062;-49
2021/08/29 09:49:33;;;;;;;9.07;7.75;;;16.80;99.90;;;;;;5148747;27;20473;-49
2021/08/29 09:52:02;;;;;;;6.57;5.70;;;16.80;99.90;;;;;;5147668;27;20388;-50
2021/08/29 09:54:33;;;;;;;5.28;4.78;;;16.90;99.90;;;;;;5142993;27;20023;-50
2021/08/29 09:57:01;;;;;;;5.32;4.75;;;17.20;99.90;;;;;;5145819;27;20106;-50
2021/08/29 09:59:38;;;;;;;5.95;5.35;;;17.20;99.90;;;;;;5141332;27;20035;-50
2021/08/29 10:02:09;;;;;;;5.72;5.18;;;16.90;99.90;;;;;;5112281;27;20031;-50
2021/08/29 10:04:35;;;;;;;5.65;4.50;;;16.90;99.90;;;;;;5141988;27;20484;-52
2021/08/29 10:07:18;;;;;;;4.80;4.38;;;16.60;99.90;;;;;;5149006;27;20106;-54
2021/08/29 10:09:46;;;;;;;5.40;4.90;;;16.40;99.90;;;;;;5086682;28;20050;-49
2021/08/29 10:12:13;;;;;;;6.65;5.80;;;16.40;99.90;;;;;;5086291;28;20031;-53
2021/08/29 10:14:41;;;;;;;6.60;5.15;;;16.50;99.90;;;;;;5096548;28;20028;-49
2021/08/29 10:17:10;;;;;;;6.35;5.75;;;16.40;99.90;;;;;;5079750;28;20051;-52
2021/08/29 10:19:51;;;;;;;5.53;5.03;;;16.50;99.90;;;;;;5085986;28;20073;-53
2021/08/29 10:22:24;;;;;;;8.02;5.07;;;16.60;99.90;;;;;;5042206;28;20037;-53
2021/08/29 10:24:58;;;;;;;7.85;5.05;;;16.60;99.90;;;;;;5029165;28;20546;-53
2021/08/29 10:27:32;;;;;;;7.00;5.57;;;16.60;99.90;;;;;;5007232;28;20217;-52
2021/08/29 10:30:21;;;;;;;7.25;5.30;;;16.60;99.90;;;;;;5031660;28;20059;-51
2021/08/29 10:33:06;;;;;;;7.13;5.45;;;16.60;99.90;;;;;;5007480;28;20069;-51
2021/08/29 10:35:41;;;;;;;5.88;5.28;;;16.40;99.90;;;;;;4985402;28;20069;-50
2021/08/29 10:38:09;;;;;;;5.38;4.88;;;16.40;99.90;;;;;;4983394;28;20603;-51
2021/08/29 10:40:35;;;;;;;5.97;5.38;;;16.40;99.90;;;;;;4983014;28;20514;-51
2021/08/29 10:43:02;;;;;;;5.88;5.38;;;16.50;99.90;;;;;;4973064;28;20557;-52
2021/08/29 10:45:28;;;;;;;5.70;5.13;;;16.50;99.90;;;;;;4972035;28;20510;-50
2021/08/29 10:47:55;;;;;;;6.85;5.90;;;16.50;99.90;;;;;;4972604;28;20027;-47
2021/08/29 10:50:22;;;;;;;5.95;5.38;;;16.60;99.90;;;;;;4970496;28;20057;-49
2021/08/29 10:52:47;;;;;;;7.47;6.78;;;16.60;99.90;;;;;;4969705;28;20078;-51
2021/08/29 10:55:18;;;;;;;6.53;5.93;;;16.60;99.90;;;;;;4971676;28;20051;-51
2021/08/29 10:57:45;;;;;;;7.80;6.53;;;16.50;99.90;;;;;;4971795;28;20043;-50
2021/08/29 11:00:37;;;;;;;6.47;5.88;;;16.40;99.90;;;;;;4971853;28;20121;-51
2021/08/29 11:03:03;;;;;;;7.15;6.55;;;16.50;99.90;;;;;;4970523;28;20121;-51
2021/08/29 11:05:28;;;;;;;6.70;6.03;;;16.60;99.90;;;;;;4941891;28;20569;-52
2021/08/29 11:07:56;;;;;;;6.00;5.40;;;16.70;99.90;;;;;;4990927;28;20042;-50
2021/08/29 11:10:37;;;;;;;7.07;5.57;;;16.70;99.90;;;;;;4990866;28;20410;-50
2021/08/29 11:13:27;;;;;;;5.28;4.78;;;16.90;99.90;;;;;;4988901;28;20034;-48
2021/08/29 11:16:14;;;;;;;6.72;5.22;;;16.90;99.90;;;;;;4991245;28;20457;-49
2021/08/29 11:19:01;;;;;;;5.55;5.05;;;16.70;99.90;;;;;;4990538;28;20173;-52
2021/08/29 11:21:36;;;;;;;6.15;5.55;;;16.70;99.90;;;;;;4989642;28;20117;-50
2021/08/29 11:24:05;;;;;;;5.88;4.97;;;16.70;99.90;;;;;;4992668;28;20038;-50
2021/08/29 11:26:40;;;;;;;6.57;5.15;;;16.70;99.90;;;;;;4990824;28;20493;-49
2021/08/29 11:29:53;;;;;;;5.13;4.20;;;16.60;99.90;;;;;;5023062;28;20055;-51
2021/08/29 11:32:45;;;;;;;6.72;6.03;;;16.30;99.90;;;;;;4992559;28;20173;-49
2021/08/29 11:35:18;;;;;;;5.65;5.13;;;16.30;99.90;;;;;;4992046;28;20042;-52
2021/08/29 11:38:15;;;;;;;7.32;6.35;;;16.20;99.90;;;;;;4997427;28;20046;-48
2021/08/29 11:40:51;;;;;;;6.82;6.13;;;16.30;99.90;;;;;;5006066;28;20062;-48
2021/08/29 11:43:18;;;;;;;6.72;6.05;;;16.20;99.90;;;;;;5008696;28;20038;-48
2021/08/29 11:45:45;;;;;;;6.88;5.93;;;16.30;99.90;;;;;;5000845;28;20040;-47
2021/08/29 11:48:24;;;;;;;8.02;6.32;;;16.50;99.90;;;;;;5010489;28;20030;-49
2021/08/29 11:50:50;;;;;;;9.05;6.10;;;16.50;99.90;;;;;;4996509;28;20076;-51
2021/08/29 11:53:16;;;;;;;10.70;5.43;;;16.50;99.90;;;;;;5007466;28;20493;-51
2021/08/29 11:55:42;;;;;;;7.30;6.15;;;16.50;99.90;;;;;;4992086;28;20096;-47
2021/08/29 11:58:20;;;;;;;9.10;6.15;;;16.60;99.90;;;;;;4999825;28;20065;-47
2021/08/29 12:00:48;;;;;;;7.93;5.65;;;16.50;99.90;;;;;;5007143;28;20053;-48
2021/08/29 12:03:15;;;;;;;6.88;6.18;;;16.50;99.90;;;;;;5010430;28;20038;-48
2021/08/29 12:05:59;;;;;;;9.05;6.13;;;16.40;99.90;;;;;;5031221;28;20033;-48
2021/08/29 12:08:41;;;;;;;8.20;5.97;;;16.40;99.90;;;;;;5046870;27;20039;-47
2021/08/29 12:11:11;;;;;;;6.53;5.93;;;16.30;99.90;;;;;;5128554;27;20039;-49
2021/08/29 12:13:38;;;;;;;9.75;6.13;;;16.30;99.90;;;;;;5125171;27;20050;-49
2021/08/29 12:16:04;;;;;;;7.28;5.15;;;16.20;99.90;;;;;;5125248;27;20541;-49
2021/08/29 12:18:38;;;;;;;8.52;5.45;;;16.10;99.90;;;;;;5045322;27;20466;-49
2021/08/29 12:21:06;;;;;;;6.55;5.95;;;16.00;99.90;;;;;;5088090;28;20508;-49
2021/08/29 12:23:33;;;;;;;7.18;6.50;;;16.00;99.90;;;;;;5127703;27;20378;-46
2021/08/29 12:26:02;;;;;;;7.35;6.20;;;16.00;99.90;;;;;;5050922;28;20076;-49
2021/08/29 12:28:29;;;;;;;7.22;6.53;;;16.00;99.90;;;;;;5064804;28;20074;-47
2021/08/29 12:30:56;;;;;;;7.63;6.93;;;16.00;99.90;;;;;;5060636;28;20052;-49
2021/08/29 12:33:24;;;;;;;7.35;6.07;;;16.00;99.90;;;;;;5067162;28;20078;-46
2021/08/29 12:35:50;;;;;;;6.68;5.55;;;16.10;99.90;;;;;;5070115;28;20086;-48
2021/08/29 12:38:17;;;;;;;5.97;5.32;;;16.10;99.90;;;;;;5003976;28;20079;-47
2021/08/29 12:40:43;;;;;;;6.63;5.93;;;16.00;99.90;;;;;;5036723;28;20094;-48
2021/08/29 12:43:10;;;;;;;8.18;6.50;;;16.00;99.90;;;;;;5070306;28;20050;-48
2021/08/29 12:45:36;;;;;;;6.93;6.22;;;16.10;99.90;;;;;;5070371;28;20079;-47
2021/08/29 12:48:02;;;;;;;8.65;5.93;;;16.30;99.90;;;;;;5056218;28;20028;-49
2021/08/29 12:50:29;;;;;;;7.10;6.03;;;16.30;99.90;;;;;;5030345;28;20034;-48
2021/08/29 12:53:17;;;;;;;7.75;6.80;;;16.30;99.90;;;;;;5030254;28;20029;-49
2021/08/29 12:55:54;;;;;;;6.97;6.38;;;16.20;99.90;;;;;;5030329;28;20067;-48
2021/08/29 12:58:23;;;;;;;8.30;6.65;;;16.10;99.90;;;;;;5096071;28;20031;-45
2021/08/29 13:00:55;;;;;;;7.32;6.63;;;16.10;99.90;;;;;;5110511;28;20039;-50
2021/08/29 13:03:23;;;;;;;7.13;6.43;;;16.10;99.90;;;;;;5056919;28;20040;-46